Terminal Aerodrome Forecast
Issued by NWS Tulsa, OK

Home | Current Version | Previous Version | Text Only | Print | Product List | Glossary On
Versions: 1 2 3 4 5 6 7 8 9 10 11 12 13 14
000
FTUS44 KTSA 251700
TAFTUL
TAF
KTUL 251737Z 2518/2618 19024G35KT P6SM BKN250
     FM260100 18016G23KT P6SM BKN200
     FM260900 17015KT P6SM SCT025 BKN200 WS020/21040KT
     FM261300 17011KT P6SM BKN015=

USA.gov is the U.S. government's official web portal to all federal, state and local government web resources and services.